Terminal Aerodrome Forecast
Issued by NWS

Home | Current Version | Previous Version | Text Only | Print | Product List | Glossary On
Versions: 1 2 3 4 5 6 7 8 9 10 11 12 13
000
FTUS45 KRIW 301700
TAFCPR
TAF
KCPR 301721Z 3018/3118 24009KT P6SM BKN200
     FM301900 36008KT P6SM FEW060 BKN200
     FM310200 03007KT P6SM SCT015 SCT060
     FM311000 VRB05KT P6SM SCT010 BKN100
     FM311600 24010KT P6SM SKC=

USA.gov is the U.S. government's official web portal to all federal, state and local government web resources and services.